Time;durP1;ratioP1;P1;durP2;ratioP2;P2;SDS_P1;SDS_P2;PMS_P1;PMS_P2;Temp;Humidity;BMP_temperature;BMP_pressure;BME280_temperature;BME280_humidity;BME280_pressure;Samples;Min_cycle;Max_cycle;Signal;HPM_P1;HPM_P2
2022/01/22 00:01:49;;;;;;;2.50;0.90;;;9.00;99.90;;;;;;5042779;28;20545;-65
2022/01/22 00:04:16;;;;;;;1.00;0.90;;;9.00;99.90;;;;;;5023950;28;20616;-64
2022/01/22 00:06:42;;;;;;;2.47;0.93;;;8.90;99.90;;;;;;5039176;28;20179;-64
2022/01/22 00:09:09;;;;;;;2.73;1.00;;;8.90;99.90;;;;;;5007060;28;20188;-69
2022/01/22 00:11:39;;;;;;;0.83;0.70;;;8.90;99.90;;;;;;5044120;28;20583;-66
2022/01/22 00:14:24;;;;;;;0.97;0.87;;;8.90;99.90;;;;;;5042620;28;20686;-68
2022/01/22 00:16:57;;;;;;;1.07;0.97;;;9.00;99.90;;;;;;5029289;28;20241;-65
2022/01/22 00:19:25;;;;;;;2.10;0.93;;;9.00;99.90;;;;;;5042992;28;20210;-66
2022/01/22 00:21:52;;;;;;;4.30;1.00;;;8.90;99.90;;;;;;5036023;28;20221;-68
2022/01/22 00:24:20;;;;;;;2.73;0.90;;;8.90;99.90;;;;;;5044899;28;20286;-68
2022/01/22 00:26:48;;;;;;;3.10;1.07;;;8.90;99.90;;;;;;5033497;28;20663;-67
2022/01/22 00:29:16;;;;;;;3.07;0.77;;;8.90;99.90;;;;;;5028673;28;20215;-66
2022/01/22 00:31:43;;;;;;;4.33;1.17;;;8.90;99.90;;;;;;5059803;28;20698;-65
2022/01/22 00:34:10;;;;;;;2.10;1.00;;;8.90;99.90;;;;;;5054862;28;20274;-66
2022/01/22 00:36:39;;;;;;;3.23;1.17;;;8.90;99.90;;;;;;5060807;28;20199;-66
2022/01/22 00:39:05;;;;;;;4.03;1.00;;;8.90;99.90;;;;;;5026409;28;20341;-65
2022/01/22 00:41:32;;;;;;;2.03;0.80;;;8.90;99.90;;;;;;5056203;28;20234;-66
2022/01/22 00:43:58;;;;;;;1.80;0.77;;;8.90;99.90;;;;;;5044960;28;20191;-69
2022/01/22 00:46:26;;;;;;;3.07;1.03;;;9.00;99.90;;;;;;5033943;28;20767;-65
2022/01/22 00:48:53;;;;;;;3.47;1.03;;;9.00;99.90;;;;;;5044197;28;20673;-67
2022/01/22 00:51:19;;;;;;;0.93;0.83;;;9.00;99.90;;;;;;5044158;28;20197;-69
2022/01/22 00:53:45;;;;;;;1.73;0.77;;;9.00;99.90;;;;;;5065229;28;20265;-65
2022/01/22 00:56:13;;;;;;;1.87;0.90;;;9.00;99.90;;;;;;5043624;28;20636;-66
2022/01/22 00:58:40;;;;;;;3.03;0.90;;;9.00;99.90;;;;;;5047310;28;20288;-67
2022/01/22 01:01:06;;;;;;;2.50;1.30;;;8.90;99.90;;;;;;5049218;28;20647;-66
2022/01/22 01:03:34;;;;;;;2.87;1.00;;;9.00;99.90;;;;;;5044983;28;20195;-69
2022/01/22 01:06:03;;;;;;;2.10;0.83;;;9.00;99.90;;;;;;5059107;28;20199;-68
2022/01/22 01:08:32;;;;;;;1.80;0.73;;;9.00;99.90;;;;;;5025998;28;20197;-67
2022/01/22 01:10:59;;;;;;;2.97;0.97;;;9.00;99.90;;;;;;5063781;28;20626;-66
2022/01/22 01:13:28;;;;;;;4.93;0.90;;;9.00;99.90;;;;;;5044356;28;20187;-66
2022/01/22 01:16:00;;;;;;;1.53;0.80;;;8.90;99.90;;;;;;5059753;28;20191;-66
2022/01/22 01:34:42;;;;;;;1.23;0.83;;;8.90;99.90;;;;;;5039044;28;20547;-66
2022/01/22 01:37:13;;;;;;;5.87;2.20;;;8.90;99.90;;;;;;5027292;28;20230;-66
2022/01/22 01:39:41;;;;;;;3.67;1.00;;;8.90;99.90;;;;;;5024872;28;20207;-66
2022/01/22 01:42:24;;;;;;;1.10;0.80;;;8.90;99.90;;;;;;5037163;28;20529;-67
2022/01/22 01:44:50;;;;;;;3.17;0.90;;;8.90;99.90;;;;;;5029068;28;20186;-68
2022/01/22 01:47:19;;;;;;;2.53;0.73;;;8.90;99.90;;;;;;5043004;28;20187;-67
2022/01/22 01:49:46;;;;;;;2.70;1.00;;;8.90;99.90;;;;;;5048209;28;20191;-66
2022/01/22 01:52:18;;;;;;;2.80;1.00;;;8.90;99.90;;;;;;5043382;28;20858;-67
2022/01/22 01:54:58;;;;;;;2.10;1.00;;;8.90;99.90;;;;;;5025964;28;20275;-66
2022/01/22 01:57:46;;;;;;;1.30;1.00;;;8.90;99.90;;;;;;5038602;28;20403;-66
2022/01/22 02:00:21;;;;;;;1.00;0.80;;;8.90;99.90;;;;;;5032486;28;20231;-65
2022/01/22 02:02:50;;;;;;;2.63;1.10;;;8.90;99.90;;;;;;5051720;28;20589;-67
2022/01/22 02:05:22;;;;;;;1.67;0.80;;;8.90;99.90;;;;;;5063402;28;20183;-71
2022/01/22 02:07:52;;;;;;;1.77;0.87;;;8.90;99.90;;;;;;5035019;28;20325;-67
2022/01/22 02:10:22;;;;;;;2.20;1.27;;;9.00;99.90;;;;;;5045592;28;20188;-67
2022/01/22 02:23:44;;;;;;;2.63;1.00;;;9.10;99.90;;;;;;5038343;28;20551;-67
2022/01/22 02:26:14;;;;;;;3.53;1.00;;;9.10;99.90;;;;;;5040014;28;20183;-65
2022/01/22 02:28:46;;;;;;;2.43;0.87;;;9.20;99.90;;;;;;5046934;28;20204;-66
2022/01/22 02:31:22;;;;;;;1.17;0.80;;;9.20;99.90;;;;;;5049830;28;20281;-67
2022/01/22 02:34:03;;;;;;;5.30;0.97;;;9.20;99.90;;;;;;5063250;28;20285;-67
2022/01/22 02:36:37;;;;;;;1.87;0.73;;;9.30;99.90;;;;;;5054373;28;20199;-69
2022/01/22 02:39:20;;;;;;;2.43;0.80;;;9.30;99.90;;;;;;5047207;28;20662;-67
2022/01/22 02:41:51;;;;;;;1.80;1.30;;;9.30;99.90;;;;;;5055538;28;20291;-66
2022/01/22 02:44:32;;;;;;;1.77;0.87;;;9.30;99.90;;;;;;5034687;28;20187;-67
2022/01/22 02:47:00;;;;;;;1.27;0.73;;;9.30;99.90;;;;;;5052231;28;20187;-66
2022/01/22 02:49:27;;;;;;;0.77;0.77;;;9.30;99.90;;;;;;5051520;28;20222;-68
2022/01/22 02:52:03;;;;;;;1.03;0.80;;;9.30;99.90;;;;;;5047636;28;20214;-67
2022/01/22 02:54:30;;;;;;;2.63;1.10;;;9.30;99.90;;;;;;5061524;28;20674;-66
2022/01/22 02:56:57;;;;;;;2.47;0.80;;;9.30;99.90;;;;;;5029302;28;20194;-67
2022/01/22 02:59:23;;;;;;;2.00;0.80;;;9.30;99.90;;;;;;5045226;28;20555;-67
2022/01/22 03:01:52;;;;;;;2.03;0.80;;;9.30;99.90;;;;;;5047268;28;20282;-67
2022/01/22 03:04:19;;;;;;;2.20;1.10;;;9.30;99.90;;;;;;5061931;28;20201;-67
2022/01/22 03:06:47;;;;;;;0.87;0.70;;;9.30;99.90;;;;;;5061125;28;20190;-66
2022/01/22 03:09:17;;;;;;;1.27;0.80;;;9.30;99.90;;;;;;5046121;28;20195;-66
2022/01/22 03:12:00;;;;;;;1.00;0.90;;;9.30;99.90;;;;;;5062709;28;20278;-68
2022/01/22 03:27:30;;;;;;;2.50;1.20;;;9.20;99.90;;;;;;5060701;28;20195;-67
2022/01/22 03:29:58;;;;;;;5.07;1.20;;;9.20;99.90;;;;;;5061866;28;20228;-66
2022/01/22 03:32:28;;;;;;;2.43;1.10;;;9.20;99.90;;;;;;5059693;28;20244;-66
2022/01/22 03:37:23;;;;;;;1.00;0.70;;;9.30;99.90;;;;;;5051267;28;20243;-67
2022/01/22 03:39:50;;;;;;;2.10;1.17;;;9.30;99.90;;;;;;5027793;28;20642;-68
2022/01/22 03:42:16;;;;;;;1.33;0.90;;;9.20;99.90;;;;;;5044978;28;20207;-67
2022/01/22 03:44:43;;;;;;;3.73;1.10;;;9.30;99.90;;;;;;5027713;28;20204;-67
2022/01/22 03:47:09;;;;;;;2.13;1.03;;;9.30;99.90;;;;;;5028407;28;20955;-65
2022/01/22 03:49:35;;;;;;;1.40;0.90;;;9.30;99.90;;;;;;5058130;28;20286;-67
2022/01/22 03:52:03;;;;;;;1.70;0.90;;;9.30;99.90;;;;;;5043005;28;20242;-68
2022/01/22 03:54:29;;;;;;;4.30;1.20;;;9.30;99.90;;;;;;5051248;28;20195;-68
2022/01/22 03:56:55;;;;;;;0.93;0.87;;;9.30;99.90;;;;;;5041843;28;20192;-67
2022/01/22 03:59:22;;;;;;;2.23;1.10;;;9.30;99.90;;;;;;5043508;28;20257;-67
2022/01/22 04:04:29;;;;;;;1.37;1.00;;;9.40;99.90;;;;;;5052953;28;20714;-66
2022/01/22 04:09:30;;;;;;;1.23;1.13;;;9.40;99.90;;;;;;5043243;28;20640;-68
2022/01/22 04:11:58;;;;;;;1.83;0.70;;;9.40;99.90;;;;;;5060085;28;20203;-65
2022/01/22 04:14:30;;;;;;;2.13;1.03;;;9.50;99.90;;;;;;5044616;28;20194;-66
2022/01/22 04:24:55;;;;;;;2.07;1.20;;;9.50;99.90;;;;;;5034237;28;20184;-68
2022/01/22 04:27:27;;;;;;;2.97;1.00;;;9.50;99.90;;;;;;5040396;28;20192;-67
2022/01/22 04:29:58;;;;;;;4.73;1.30;;;9.50;99.90;;;;;;5021082;28;20683;-68
2022/01/22 04:32:31;;;;;;;1.00;0.90;;;9.50;99.90;;;;;;5060002;28;20198;-65
2022/01/22 04:34:57;;;;;;;4.70;1.30;;;9.50;99.90;;;;;;5060417;28;20183;-65
2022/01/22 04:37:24;;;;;;;1.87;1.20;;;9.50;99.90;;;;;;5027373;28;20690;-67
2022/01/22 04:39:52;;;;;;;2.10;1.37;;;9.40;99.90;;;;;;5028206;28;20199;-66
2022/01/22 04:42:20;;;;;;;3.37;1.37;;;9.40;99.90;;;;;;5027440;28;20262;-66
2022/01/22 04:47:52;;;;;;;1.57;0.80;;;9.30;99.90;;;;;;5043798;28;20205;-66
2022/01/22 04:55:41;;;;;;;1.73;0.97;;;9.30;99.90;;;;;;5043523;28;20213;-67
2022/01/22 04:58:08;;;;;;;2.10;1.10;;;9.20;99.90;;;;;;5044312;28;20200;-65
2022/01/22 05:00:39;;;;;;;3.77;1.10;;;9.20;99.90;;;;;;5050354;28;20227;-67
2022/01/22 05:03:06;;;;;;;3.63;1.27;;;9.30;99.90;;;;;;5048959;28;20214;-66
2022/01/22 05:05:33;;;;;;;3.13;1.00;;;9.30;99.90;;;;;;5044450;28;20699;-67
2022/01/22 05:07:59;;;;;;;2.47;1.10;;;9.20;99.90;;;;;;5032508;28;20637;-65
2022/01/22 05:10:26;;;;;;;1.43;0.97;;;9.20;99.90;;;;;;5026771;28;20191;-68
2022/01/22 05:12:53;;;;;;;3.20;1.10;;;9.20;99.90;;;;;;5045071;28;20175;-67
2022/01/22 05:15:22;;;;;;;2.53;1.10;;;9.30;99.90;;;;;;5026700;28;20192;-67
2022/01/22 05:17:49;;;;;;;2.53;1.10;;;9.30;99.90;;;;;;5039338;28;20745;-66
2022/01/22 05:20:25;;;;;;;7.37;1.27;;;9.30;99.90;;;;;;5069746;28;20230;-65
2022/01/22 05:22:57;;;;;;;2.17;1.10;;;9.40;99.90;;;;;;5018874;28;20245;-65
2022/01/22 05:25:32;;;;;;;6.30;1.20;;;9.40;99.90;;;;;;5033534;28;20658;-66
2022/01/22 05:38:32;;;;;;;10.33;1.40;;;9.60;99.90;;;;;;5046987;28;20570;-66
2022/01/22 05:40:59;;;;;;;1.73;1.07;;;9.60;99.90;;;;;;5048764;28;20196;-65
2022/01/22 05:43:26;;;;;;;2.97;1.13;;;9.60;99.90;;;;;;5047724;28;20401;-68
2022/01/22 05:45:53;;;;;;;1.83;1.23;;;9.50;99.90;;;;;;5064697;28;20184;-67
2022/01/22 05:48:20;;;;;;;1.93;0.90;;;9.50;99.90;;;;;;5031261;28;20638;-66
2022/01/22 06:01:12;;;;;;;4.80;1.70;;;9.30;99.90;;;;;;5055147;28;20210;-66
2022/01/22 06:03:39;;;;;;;4.37;1.90;;;9.20;99.90;;;;;;5061507;28;20187;-68
2022/01/22 06:06:05;;;;;;;4.23;1.90;;;9.20;99.90;;;;;;5045807;28;20241;-68
2022/01/22 06:08:40;;;;;;;4.63;1.83;;;9.10;99.90;;;;;;5033505;28;20219;-66
2022/01/22 06:11:10;;;;;;;6.83;1.93;;;9.10;99.90;;;;;;5043673;28;20197;-67
2022/01/22 06:13:44;;;;;;;6.13;2.00;;;9.00;99.90;;;;;;5047330;28;20180;-68
2022/01/22 06:16:17;;;;;;;3.20;1.80;;;8.90;99.90;;;;;;5060696;28;20191;-67
2022/01/22 06:18:44;;;;;;;4.00;2.13;;;8.90;99.90;;;;;;5055364;28;20524;-66
2022/01/22 06:21:11;;;;;;;3.13;1.77;;;8.90;99.90;;;;;;5032183;28;20274;-67
2022/01/22 06:23:39;;;;;;;5.00;2.03;;;8.80;99.90;;;;;;5053327;28;20180;-67
2022/01/22 06:26:08;;;;;;;4.87;1.83;;;8.80;99.90;;;;;;5061317;28;20718;-67
2022/01/22 06:28:36;;;;;;;4.83;1.93;;;8.80;99.90;;;;;;5023714;28;20257;-67
2022/01/22 06:31:03;;;;;;;3.23;1.97;;;8.80;99.90;;;;;;5030667;28;20199;-68
2022/01/22 06:33:29;;;;;;;4.10;2.27;;;8.80;99.90;;;;;;5062527;28;20188;-67
2022/01/22 06:35:57;;;;;;;3.97;2.20;;;8.80;99.90;;;;;;5046052;28;20194;-68
2022/01/22 06:38:25;;;;;;;4.77;2.03;;;8.80;99.90;;;;;;5028501;28;20202;-67
2022/01/22 06:43:35;;;;;;;3.47;2.10;;;8.90;99.90;;;;;;5058817;28;20179;-66
2022/01/22 06:46:02;;;;;;;2.67;1.90;;;8.90;99.90;;;;;;5063394;28;20214;-66
2022/01/22 06:48:28;;;;;;;4.23;2.17;;;8.90;99.90;;;;;;5047575;28;20188;-67
2022/01/22 06:50:55;;;;;;;3.37;1.90;;;8.90;99.90;;;;;;5046427;28;20188;-68
2022/01/22 06:53:21;;;;;;;2.83;2.10;;;8.90;99.90;;;;;;5061536;28;20529;-66
2022/01/22 06:55:56;;;;;;;3.20;1.80;;;8.90;99.90;;;;;;5063009;28;20199;-66
2022/01/22 06:58:23;;;;;;;1.87;1.67;;;8.90;99.90;;;;;;5061769;28;21171;-69
2022/01/22 07:00:49;;;;;;;5.03;2.23;;;8.90;99.90;;;;;;5035470;28;20219;-67
2022/01/22 07:03:16;;;;;;;3.63;1.80;;;9.00;99.90;;;;;;5015142;28;20591;-67
2022/01/22 07:05:42;;;;;;;4.80;2.07;;;9.00;99.90;;;;;;5062356;28;20265;-66
2022/01/22 07:08:09;;;;;;;4.43;2.20;;;9.00;99.90;;;;;;5045519;28;20218;-67
2022/01/22 07:10:35;;;;;;;3.17;1.80;;;9.00;99.90;;;;;;5024640;28;20291;-68
2022/01/22 07:13:02;;;;;;;3.80;2.03;;;9.10;99.90;;;;;;5042307;28;20198;-66
2022/01/22 07:15:28;;;;;;;4.63;1.83;;;9.10;99.90;;;;;;5061957;28;20728;-67
2022/01/22 07:17:55;;;;;;;3.33;2.00;;;9.00;99.90;;;;;;5056707;28;20248;-66
2022/01/22 07:20:31;;;;;;;4.77;2.00;;;9.10;99.90;;;;;;5038687;28;20191;-66
2022/01/22 07:25:24;;;;;;;4.83;2.80;;;9.10;99.90;;;;;;5043691;28;20241;-69
2022/01/22 07:27:51;;;;;;;2.80;2.57;;;9.10;99.90;;;;;;5043172;28;20211;-66
2022/01/22 07:30:18;;;;;;;4.70;3.13;;;9.00;99.90;;;;;;5046090;28;20211;-66
2022/01/22 07:32:45;;;;;;;5.83;3.10;;;8.90;99.90;;;;;;5046783;28;20192;-69
2022/01/22 07:35:17;;;;;;;4.40;2.97;;;9.00;99.90;;;;;;5046542;28;20202;-65
2022/01/22 07:37:44;;;;;;;8.37;3.20;;;9.00;99.90;;;;;;5044281;28;20187;-68
2022/01/22 07:40:11;;;;;;;3.43;2.63;;;9.00;99.90;;;;;;5030123;28;20670;-66
2022/01/22 07:42:39;;;;;;;3.57;3.00;;;9.00;99.90;;;;;;5057569;28;20212;-65
2022/01/22 07:45:08;;;;;;;2.90;2.60;;;9.00;99.90;;;;;;5049245;28;20574;-66
2022/01/22 07:47:35;;;;;;;4.27;2.93;;;9.00;99.90;;;;;;5045036;28;20213;-70
2022/01/22 07:50:05;;;;;;;8.63;2.90;;;9.00;99.90;;;;;;5055438;28;20194;-66
2022/01/22 07:52:32;;;;;;;3.33;2.83;;;9.00;99.90;;;;;;5060747;28;20195;-65
2022/01/22 07:54:58;;;;;;;5.43;2.70;;;9.00;99.90;;;;;;5043629;28;20273;-66
2022/01/22 07:57:25;;;;;;;5.23;2.47;;;9.00;99.90;;;;;;5035364;28;20274;-68
2022/01/22 07:59:52;;;;;;;4.50;1.80;;;9.00;99.90;;;;;;5047192;28;20194;-67
2022/01/22 08:02:18;;;;;;;2.13;1.87;;;9.00;99.90;;;;;;5036803;28;20706;-66
2022/01/22 08:04:45;;;;;;;1.70;1.60;;;9.00;99.90;;;;;;5059326;28;20186;-67
2022/01/22 08:07:11;;;;;;;2.10;1.57;;;9.00;99.90;;;;;;5030601;28;20191;-66
2022/01/22 08:09:38;;;;;;;1.70;1.57;;;9.00;99.90;;;;;;5037149;28;20206;-69
2022/01/22 08:12:05;;;;;;;5.07;1.20;;;9.00;99.90;;;;;;5061078;28;20194;-66
2022/01/22 08:14:31;;;;;;;2.07;1.40;;;9.00;99.90;;;;;;5040098;28;20234;-67
2022/01/22 08:16:57;;;;;;;3.67;1.57;;;9.10;99.90;;;;;;5043287;28;20196;-66
2022/01/22 08:19:24;;;;;;;2.80;1.73;;;9.20;99.90;;;;;;5036171;28;20225;-66
2022/01/22 08:21:50;;;;;;;2.57;1.63;;;9.30;99.90;;;;;;5026767;28;20207;-66
2022/01/22 08:24:18;;;;;;;2.17;1.70;;;9.40;99.90;;;;;;5031514;28;20567;-68
2022/01/22 08:26:53;;;;;;;2.53;1.60;;;9.60;99.90;;;;;;5059738;28;20183;-69
2022/01/22 08:29:19;;;;;;;1.50;1.40;;;9.60;99.90;;;;;;5026481;28;20680;-66
2022/01/22 08:37:00;;;;;;;1.80;1.30;;;9.50;99.90;;;;;;5059857;28;20528;-66
2022/01/22 08:39:27;;;;;;;2.50;1.97;;;9.50;99.90;;;;;;5042403;28;20351;-65
2022/01/22 08:41:56;;;;;;;2.30;2.10;;;9.60;99.90;;;;;;5049704;28;20889;-66
2022/01/22 08:44:22;;;;;;;1.93;1.70;;;9.60;99.90;;;;;;5058773;28;20562;-68
2022/01/22 08:46:49;;;;;;;2.57;1.70;;;9.70;99.90;;;;;;5052123;28;20203;-67
2022/01/22 08:49:15;;;;;;;1.47;1.30;;;9.80;99.90;;;;;;5033672;28;20513;-65
2022/01/22 08:51:41;;;;;;;2.70;1.50;;;9.80;99.90;;;;;;5059016;28;20231;-68
2022/01/22 08:54:10;;;;;;;2.77;1.40;;;9.90;99.90;;;;;;5047547;28;20537;-67
2022/01/22 08:56:39;;;;;;;3.83;1.30;;;9.90;99.90;;;;;;5049377;28;20199;-66
2022/01/22 08:59:07;;;;;;;3.07;1.33;;;9.90;99.90;;;;;;5045806;28;20209;-66
2022/01/22 09:01:34;;;;;;;4.10;1.17;;;9.90;99.90;;;;;;5057354;28;20577;-67
2022/01/22 09:04:00;;;;;;;1.63;0.97;;;9.90;99.90;;;;;;5047010;28;20192;-68
2022/01/22 09:06:28;;;;;;;2.90;0.90;;;9.90;99.90;;;;;;5042043;28;20187;-66
2022/01/22 09:09:03;;;;;;;2.80;1.00;;;9.90;99.90;;;;;;5038423;28;20715;-66
2022/01/22 09:11:30;;;;;;;2.90;1.00;;;9.90;99.90;;;;;;5026485;28;20193;-65
2022/01/22 09:13:56;;;;;;;3.47;1.00;;;9.90;99.90;;;;;;5002818;28;20215;-66
2022/01/22 09:16:22;;;;;;;1.70;1.00;;;9.90;99.90;;;;;;5023847;28;20250;-68
2022/01/22 09:18:50;;;;;;;1.57;1.00;;;9.90;99.90;;;;;;5045760;28;20701;-68
2022/01/22 09:21:17;;;;;;;3.83;1.10;;;9.90;99.90;;;;;;5039482;28;20214;-67
2022/01/22 09:23:43;;;;;;;6.73;1.17;;;10.00;99.90;;;;;;5035219;28;20346;-68
2022/01/22 09:26:10;;;;;;;1.50;1.00;;;10.00;99.90;;;;;;5026515;28;20797;-68
2022/01/22 09:28:43;;;;;;;2.27;1.20;;;10.00;99.90;;;;;;5029819;28;20719;-65
2022/01/22 09:31:11;;;;;;;4.77;1.50;;;10.00;99.90;;;;;;5055002;28;20207;-68
2022/01/22 09:33:39;;;;;;;2.73;1.20;;;10.00;99.90;;;;;;5052966;28;20311;-67
2022/01/22 09:36:06;;;;;;;5.60;1.27;;;10.00;99.90;;;;;;5039655;28;20226;-69
2022/01/22 09:38:33;;;;;;;2.63;1.30;;;9.90;99.90;;;;;;5029712;28;20296;-68
2022/01/22 09:41:00;;;;;;;6.77;1.50;;;9.90;99.90;;;;;;5054572;28;20227;-65
2022/01/22 09:43:27;;;;;;;2.13;1.13;;;9.90;99.90;;;;;;5015416;28;20217;-66
2022/01/22 09:45:53;;;;;;;2.20;1.47;;;9.90;99.90;;;;;;5035273;28;20204;-67
2022/01/22 09:48:20;;;;;;;2.40;1.30;;;9.90;99.90;;;;;;5030092;28;21574;-66
2022/01/22 09:50:46;;;;;;;2.57;1.13;;;10.10;99.90;;;;;;5035410;28;20290;-67
2022/01/22 09:53:13;;;;;;;1.60;1.17;;;10.20;99.90;;;;;;5054570;28;20592;-67
2022/01/22 09:55:40;;;;;;;3.47;1.70;;;10.30;99.90;;;;;;5055435;28;20257;-68
2022/01/22 09:58:09;;;;;;;7.60;2.97;;;10.40;99.90;;;;;;5053892;28;20286;-69
2022/01/22 10:00:36;;;;;;;2.73;1.33;;;10.40;99.90;;;;;;5023528;28;20675;-65
2022/01/22 10:03:21;;;;;;;2.43;1.37;;;10.40;99.90;;;;;;5025628;28;20211;-67
2022/01/22 10:05:52;;;;;;;2.53;1.23;;;10.30;99.90;;;;;;5035642;28;20191;-65
2022/01/22 10:08:34;;;;;;;4.77;1.30;;;10.30;99.90;;;;;;5035245;28;20735;-65
2022/01/22 10:11:02;;;;;;;1.73;1.50;;;10.20;99.90;;;;;;5035541;28;20215;-65
2022/01/22 10:13:50;;;;;;;5.17;1.90;;;10.20;99.90;;;;;;5036862;28;20215;-65
2022/01/22 10:16:20;;;;;;;2.87;1.60;;;10.10;99.90;;;;;;5041454;28;20294;-66
2022/01/22 10:19:13;;;;;;;3.47;1.90;;;10.00;99.90;;;;;;5047031;28;20246;-69
2022/01/22 10:21:46;;;;;;;3.97;1.60;;;10.00;99.90;;;;;;5060722;28;20668;-66
2022/01/22 10:24:40;;;;;;;3.43;1.80;;;9.90;99.90;;;;;;5043660;28;20207;-67
2022/01/22 10:27:35;;;;;;;6.47;2.17;;;9.90;99.90;;;;;;5043939;28;20203;-67
2022/01/22 10:30:15;;;;;;;2.53;1.90;;;9.80;99.90;;;;;;5058147;28;20222;-66
2022/01/22 10:35:24;;;;;;;4.53;1.93;;;9.90;99.90;;;;;;5045465;28;20195;-65
2022/01/22 10:38:00;;;;;;;6.03;1.43;;;9.90;99.90;;;;;;5048089;28;20273;-63
2022/01/22 10:40:38;;;;;;;3.27;1.50;;;9.80;99.90;;;;;;5052731;28;20517;-68
2022/01/22 10:43:31;;;;;;;4.27;1.43;;;9.80;99.90;;;;;;5035859;28;20296;-66
2022/01/22 10:48:57;;;;;;;1.53;1.43;;;9.90;99.90;;;;;;5041086;28;20227;-67
2022/01/22 10:51:31;;;;;;;3.57;1.93;;;10.00;99.90;;;;;;5042108;28;20326;-67
2022/01/22 10:54:03;;;;;;;3.97;1.67;;;10.20;99.90;;;;;;5062968;28;20202;-67
2022/01/22 10:56:32;;;;;;;5.60;2.17;;;10.30;99.90;;;;;;5029323;28;20210;-65
2022/01/22 10:59:08;;;;;;;2.70;1.40;;;10.20;99.90;;;;;;5070238;28;20275;-65
2022/01/22 11:01:51;;;;;;;4.60;1.70;;;10.20;99.90;;;;;;5032766;28;20505;-65
2022/01/22 11:04:27;;;;;;;4.67;1.90;;;10.20;99.90;;;;;;5027438;28;20717;-65
2022/01/22 11:07:01;;;;;;;3.83;1.53;;;10.20;99.90;;;;;;5062403;28;20294;-66
2022/01/22 11:09:30;;;;;;;1.93;1.50;;;10.20;99.90;;;;;;5054706;28;20186;-67
2022/01/22 11:12:00;;;;;;;3.20;1.50;;;10.20;99.90;;;;;;5048956;28;20248;-64
2022/01/22 11:14:34;;;;;;;4.87;1.90;;;10.20;99.90;;;;;;5013690;28;20660;-67
2022/01/22 11:17:05;;;;;;;4.20;2.00;;;10.30;99.90;;;;;;5047088;28;20217;-67
2022/01/22 11:19:33;;;;;;;5.73;2.30;;;10.40;99.90;;;;;;5065062;28;20924;-65
2022/01/22 11:22:10;;;;;;;6.87;1.53;;;10.50;99.90;;;;;;5036246;28;20250;-65
2022/01/22 11:24:46;;;;;;;4.33;1.63;;;10.60;99.90;;;;;;5038122;28;20195;-66
2022/01/22 11:27:17;;;;;;;3.97;1.70;;;10.80;99.90;;;;;;5047974;28;20297;-65
2022/01/22 11:29:53;;;;;;;6.80;1.67;;;10.80;99.90;;;;;;5043278;28;20365;-66
2022/01/22 11:32:26;;;;;;;7.17;2.00;;;10.70;99.90;;;;;;5028200;28;20192;-66
2022/01/22 11:34:59;;;;;;;8.87;1.80;;;10.70;99.90;;;;;;5010567;28;20295;-66
2022/01/22 11:38:00;;;;;;;4.20;1.90;;;10.80;99.90;;;;;;5028399;28;20211;-64
2022/01/22 11:40:32;;;;;;;6.50;2.70;;;10.90;99.90;;;;;;5043045;28;20674;-66
2022/01/22 11:43:10;;;;;;;8.63;1.70;;;10.90;99.90;;;;;;5037133;28;20277;-63
2022/01/22 11:45:54;;;;;;;9.87;1.77;;;10.70;99.90;;;;;;5030182;28;20371;-64
2022/01/22 11:48:30;;;;;;;7.17;1.70;;;10.70;99.90;;;;;;5055044;28;20195;-68
2022/01/22 11:51:24;;;;;;;7.20;2.13;;;10.60;99.90;;;;;;5038878;28;20195;-64
2022/01/22 11:54:01;;;;;;;3.23;1.77;;;10.60;99.90;;;;;;5059574;28;20191;-64
2022/01/22 11:56:45;;;;;;;7.40;2.03;;;10.60;99.90;;;;;;5042885;28;20364;-65
2022/01/22 11:59:19;;;;;;;5.97;1.70;;;10.60;99.90;;;;;;5061290;28;20607;-65
2022/01/22 12:01:53;;;;;;;10.70;2.30;;;10.50;99.90;;;;;;5046004;28;20211;-67
2022/01/22 12:04:49;;;;;;;6.17;1.90;;;10.40;99.90;;;;;;5031409;28;20195;-65
2022/01/22 12:07:21;;;;;;;4.60;2.10;;;10.50;99.90;;;;;;5038592;28;20196;-64
2022/01/22 12:16:16;;;;;;;8.73;2.33;;;11.00;99.90;;;;;;5038358;28;20199;-63
2022/01/22 12:18:54;;;;;;;4.37;1.63;;;11.10;99.90;;;;;;5045519;28;20187;-65
2022/01/22 12:21:38;;;;;;;7.73;1.90;;;11.00;99.90;;;;;;5045673;28;20310;-66
2022/01/22 12:24:14;;;;;;;7.47;2.00;;;11.00;99.90;;;;;;5030365;28;20353;-64
2022/01/22 12:26:50;;;;;;;8.83;2.10;;;11.00;99.90;;;;;;5031510;28;20222;-66
2022/01/22 12:29:36;;;;;;;7.00;2.53;;;11.00;99.90;;;;;;5043007;28;20207;-64
2022/01/22 12:32:17;;;;;;;8.33;2.23;;;11.00;99.90;;;;;;5031931;28;20203;-65
2022/01/22 12:35:07;;;;;;;7.53;1.60;;;10.90;99.90;;;;;;5042909;28;20701;-65
2022/01/22 12:37:39;;;;;;;9.97;2.20;;;10.90;99.90;;;;;;5040139;28;20917;-66
2022/01/22 12:40:08;;;;;;;9.20;1.90;;;10.80;99.90;;;;;;5048016;28;20687;-64
2022/01/22 12:43:11;;;;;;;5.43;1.77;;;10.70;99.90;;;;;;5025809;28;20308;-66
2022/01/22 12:45:41;;;;;;;8.53;2.17;;;10.70;99.90;;;;;;5024094;28;20188;-66
2022/01/22 12:48:12;;;;;;;7.20;1.77;;;10.70;99.90;;;;;;5025417;28;20711;-69
2022/01/22 12:50:38;;;;;;;8.53;1.77;;;10.80;99.90;;;;;;5045776;28;20191;-68
2022/01/22 12:53:14;;;;;;;9.53;1.93;;;10.80;99.90;;;;;;5036233;28;20186;-66
2022/01/22 12:58:24;;;;;;;10.37;1.50;;;10.80;99.90;;;;;;5038213;28;20257;-67
2022/01/22 13:01:06;;;;;;;7.83;1.80;;;10.80;99.90;;;;;;5053918;28;20222;-66
2022/01/22 13:03:40;;;;;;;5.43;1.60;;;10.90;99.90;;;;;;5016632;28;20193;-66
2022/01/22 13:06:06;;;;;;;7.03;1.77;;;10.90;99.90;;;;;;5059763;28;20191;-67
2022/01/22 13:08:34;;;;;;;6.63;1.60;;;10.90;99.90;;;;;;5033015;28;20317;-66
2022/01/22 13:11:04;;;;;;;5.57;1.33;;;10.90;99.90;;;;;;5051460;28;20589;-66
2022/01/22 13:13:31;;;;;;;3.00;1.20;;;10.80;99.90;;;;;;5047272;28;20194;-64
2022/01/22 13:16:10;;;;;;;5.87;1.50;;;10.90;99.90;;;;;;5029523;28;20187;-65
2022/01/22 13:18:58;;;;;;;7.23;1.67;;;10.80;99.90;;;;;;5020722;28;20190;-66
2022/01/22 13:21:32;;;;;;;2.90;1.33;;;10.80;99.90;;;;;;5035693;28;20203;-66
2022/01/22 13:24:11;;;;;;;9.57;1.47;;;10.80;99.90;;;;;;5042246;28;20611;-64
2022/01/22 13:26:54;;;;;;;12.63;2.00;;;10.80;99.90;;;;;;5042951;28;20199;-67
2022/01/22 13:29:35;;;;;;;10.40;1.87;;;10.80;99.90;;;;;;5045153;28;20244;-64
2022/01/22 13:33:06;;;;;;;5.13;1.47;;;10.80;99.90;;;;;;5028784;28;20237;-66
2022/01/22 13:35:50;;;;;;;10.43;1.40;;;10.80;99.90;;;;;;5038117;28;20314;-66
2022/01/22 13:49:26;;;;;;;8.00;1.40;;;10.80;99.90;;;;;;5061259;28;20203;-67
2022/01/22 13:52:07;;;;;;;8.10;1.93;;;10.70;99.90;;;;;;5033827;28;20684;-67
2022/01/22 13:54:54;;;;;;;7.23;1.50;;;10.70;99.90;;;;;;5025890;28;20195;-67
2022/01/22 13:57:33;;;;;;;8.40;1.60;;;10.70;99.90;;;;;;5032088;28;20249;-66
2022/01/22 14:00:11;;;;;;;8.90;1.67;;;10.70;99.90;;;;;;5061906;28;20192;-66
2022/01/22 14:03:03;;;;;;;5.40;1.37;;;10.80;99.90;;;;;;5041962;28;20404;-65
2022/01/22 14:05:31;;;;;;;11.33;1.83;;;10.70;99.90;;;;;;5070821;28;20219;-67
2022/01/22 14:08:06;;;;;;;5.73;1.50;;;10.70;99.90;;;;;;5052866;28;20219;-66
2022/01/22 14:10:34;;;;;;;5.83;1.77;;;10.70;99.90;;;;;;5045683;28;20199;-63
2022/01/22 14:13:08;;;;;;;8.43;1.70;;;10.60;99.90;;;;;;5064030;28;20274;-66
2022/01/22 14:15:42;;;;;;;10.00;1.87;;;10.60;99.90;;;;;;5056995;28;20229;-65
2022/01/22 14:18:16;;;;;;;7.10;1.60;;;10.60;99.90;;;;;;5031367;28;20288;-66
2022/01/22 14:20:55;;;;;;;8.07;1.70;;;10.60;99.90;;;;;;5053159;28;20223;-65
2022/01/22 14:23:25;;;;;;;8.90;1.80;;;10.60;99.90;;;;;;5048820;28;20211;-67
2022/01/22 14:26:02;;;;;;;5.00;1.40;;;10.60;99.90;;;;;;5048300;28;20194;-64
2022/01/22 14:28:39;;;;;;;7.03;1.90;;;10.50;99.90;;;;;;5048914;28;20214;-68
2022/01/22 14:31:23;;;;;;;8.97;2.43;;;10.50;99.90;;;;;;5064622;28;20555;-65
2022/01/22 14:33:50;;;;;;;9.93;1.90;;;10.50;99.90;;;;;;5049606;28;20236;-66
2022/01/22 14:36:20;;;;;;;8.60;2.27;;;10.40;99.90;;;;;;5064288;28;20195;-67
2022/01/22 14:38:58;;;;;;;9.23;1.83;;;10.40;99.90;;;;;;5064421;28;20544;-65
2022/01/22 14:44:31;;;;;;;8.83;1.87;;;10.20;99.90;;;;;;5045220;28;20191;-66
2022/01/22 14:47:19;;;;;;;8.37;1.60;;;10.10;99.90;;;;;;5057107;28;20195;-65
2022/01/22 14:49:55;;;;;;;6.53;1.60;;;10.10;99.90;;;;;;5064823;28;20199;-64
2022/01/22 14:52:25;;;;;;;4.93;1.60;;;10.00;99.90;;;;;;5068484;28;20192;-64
2022/01/22 14:54:55;;;;;;;6.57;1.70;;;10.00;99.90;;;;;;5055245;28;20188;-65
2022/01/22 14:57:35;;;;;;;13.23;2.03;;;9.90;99.90;;;;;;5031104;28;20227;-67
2022/01/22 15:00:07;;;;;;;12.87;2.00;;;10.00;99.90;;;;;;5030982;28;20202;-64
2022/01/22 15:02:39;;;;;;;11.77;2.03;;;10.00;99.90;;;;;;5056072;28;20215;-65
2022/01/22 15:05:11;;;;;;;10.53;2.23;;;10.00;99.90;;;;;;5036008;28;20215;-67
2022/01/22 15:07:39;;;;;;;8.97;1.70;;;10.00;99.90;;;;;;5030520;28;20192;-65
2022/01/22 15:10:08;;;;;;;14.03;1.73;;;10.00;99.90;;;;;;5058032;28;20184;-66
2022/01/22 15:12:36;;;;;;;5.30;1.43;;;9.90;99.90;;;;;;5022787;28;20191;-63
2022/01/22 15:15:04;;;;;;;6.60;1.50;;;9.90;99.90;;;;;;5052316;28;20260;-65
2022/01/22 15:17:51;;;;;;;5.93;1.50;;;9.80;99.90;;;;;;5073555;28;20192;-64
2022/01/22 15:20:24;;;;;;;15.27;1.83;;;9.80;99.90;;;;;;5021293;28;20191;-65